createdAt,value
2017-11-25T00:00:08.762Z,51.8
2017-11-25T00:01:10.661Z,51.8
2017-11-25T00:02:12.281Z,51.6
2017-11-25T00:03:14.182Z,51.6
2017-11-25T00:04:15.806Z,51.7
2017-11-25T00:05:17.431Z,52
2017-11-25T00:06:19.025Z,51.7
2017-11-25T00:07:20.922Z,51.6
2017-11-25T00:08:22.554Z,51.7
2017-11-25T00:09:23.886Z,51.5
2017-11-25T00:10:25.234Z,51.4
2017-11-25T00:11:27.129Z,51.7
2017-11-25T00:12:28.768Z,51.8
2017-11-25T00:13:30.387Z,51.4
2017-11-25T00:14:32.013Z,51.4
2017-11-25T00:15:33.907Z,52.1
2017-11-25T00:16:35.540Z,51.4
2017-11-25T00:17:37.158Z,51.9
2017-11-25T00:18:38.498Z,51.6
2017-11-25T00:19:39.842Z,51.9
2017-11-25T00:20:41.464Z,51.6
2017-11-25T00:21:43.081Z,51.7
2017-11-25T00:22:44.708Z,51.6
2017-11-25T00:23:46.608Z,51.6
2017-11-25T00:24:48.507Z,51.6
2017-11-25T00:25:49.830Z,51.7
2017-11-25T00:26:51.464Z,51.3
2017-11-25T00:27:53.194Z,51.6
2017-11-25T00:28:54.815Z,51.6
2017-11-25T00:29:56.727Z,51.6
2017-11-25T00:30:58.624Z,51.7
2017-11-25T00:31:59.944Z,51.5
2017-11-25T00:33:01.579Z,51.4
2017-11-25T00:34:03.494Z,51.4
2017-11-25T00:35:04.818Z,51.6
2017-11-25T00:36:06.722Z,52
2017-11-25T00:37:08.344Z,51.6
2017-11-25T00:38:10.242Z,51.4
2017-11-25T00:39:11.587Z,51.4
2017-11-25T00:40:12.932Z,51.6
2017-11-25T00:41:14.276Z,51.6
2017-11-25T00:42:16.179Z,51.6
2017-11-25T00:43:18.070Z,51.8
2017-11-25T00:44:19.672Z,51.4
2017-11-25T00:45:21.573Z,51.4
2017-11-25T00:46:23.174Z,51.7
2017-11-25T00:47:24.796Z,51.6
2017-11-25T00:48:26.702Z,51.4
2017-11-25T00:49:28.610Z,51.5
2017-11-25T00:50:30.222Z,51.3
2017-11-25T00:51:32.120Z,51.5
2017-11-25T00:52:34.019Z,51.6
2017-11-25T00:53:35.912Z,51.6
2017-11-25T00:54:37.808Z,51.6
2017-11-25T00:55:39.154Z,51.6
2017-11-25T00:56:41.057Z,51.6
2017-11-25T00:57:42.967Z,51.6
2017-11-25T00:58:44.301Z,51.6
2017-11-25T00:59:46.198Z,51.6
2017-11-25T01:00:48.100Z,51.6
2017-11-25T01:01:49.997Z,51.6
2017-11-25T01:02:51.895Z,51.5
2017-11-25T01:03:53.796Z,51.8
2017-11-25T01:04:55.419Z,51.6
2017-11-25T01:05:57.056Z,51.6
2017-11-25T01:06:58.400Z,51.6
2017-11-25T01:08:00.323Z,51.6
2017-11-25T01:09:01.941Z,51.5
2017-11-25T01:10:03.844Z,51.5
2017-11-25T01:11:05.740Z,51.5
2017-11-25T01:12:07.347Z,51.5
2017-11-25T01:13:08.666Z,51.5
2017-11-25T01:14:09.986Z,51.6
2017-11-25T01:15:11.328Z,51.5
2017-11-25T01:16:13.228Z,51.5
2017-11-25T01:17:14.272Z,51.6
2017-11-25T01:18:16.169Z,51.6
2017-11-25T01:19:17.789Z,51.6
2017-11-25T01:20:19.689Z,51.5
2017-11-25T01:21:21.592Z,51.6
2017-11-25T01:22:23.189Z,51.6
2017-11-25T01:23:24.790Z,51.4
2017-11-25T01:24:26.408Z,51.6
2017-11-25T01:25:28.029Z,51.5
2017-11-25T01:26:29.644Z,51.6
2017-11-25T01:27:31.262Z,51.5
2017-11-25T01:28:33.193Z,51.7
2017-11-25T01:29:34.813Z,51.5
2017-11-25T01:30:36.431Z,51.5
2017-11-25T01:31:38.054Z,51.5
2017-11-25T01:32:39.682Z,51.5
2017-11-25T01:33:41.590Z,51.6
2017-11-25T01:34:43.211Z,51.6
2017-11-25T01:35:44.835Z,51.6
2017-11-25T01:36:46.731Z,51.6
2017-11-25T01:37:48.625Z,51.6
2017-11-25T01:38:50.226Z,51.5
2017-11-25T01:39:51.566Z,51.5
2017-11-25T01:40:52.905Z,51.5
2017-11-25T01:41:54.506Z,51.5
2017-11-25T01:42:56.120Z,51.5
2017-11-25T01:43:57.743Z,51.5
2017-11-25T01:44:59.370Z,51.7
2017-11-25T01:46:00.981Z,51.8
2017-11-25T01:47:02.598Z,51.4
2017-11-25T01:48:03.919Z,51.5
2017-11-25T01:49:05.265Z,51.5
2017-11-25T01:50:07.161Z,51.5
2017-11-25T01:51:08.775Z,51.6
2017-11-25T01:52:10.674Z,51.4
2017-11-25T01:53:12.019Z,51.6
2017-11-25T01:54:13.917Z,51.5
2017-11-25T01:55:15.811Z,51.6
2017-11-25T01:56:17.431Z,51.4
2017-11-25T01:57:19.047Z,51.5
2017-11-25T01:58:20.390Z,51.6
2017-11-25T01:59:22.010Z,51.6
2017-11-25T02:00:23.631Z,51.6
2017-11-25T02:01:24.969Z,51.4
2017-11-25T02:02:26.567Z,51.5
2017-11-25T02:03:28.175Z,51.5
2017-11-25T02:04:30.068Z,51.5
2017-11-25T02:05:31.667Z,51.6
2017-11-25T02:06:33.581Z,51.6
2017-11-25T02:07:35.201Z,51.4
2017-11-25T02:08:36.522Z,51.6
2017-11-25T02:09:38.432Z,51.3
2017-11-25T02:10:40.047Z,51.4
2017-11-25T02:11:41.949Z,51.3
2017-11-25T02:12:43.838Z,51.2
2017-11-25T02:13:44.884Z,51.6
2017-11-25T02:14:46.778Z,51.4
2017-11-25T02:15:48.419Z,51.6
2017-11-25T02:16:50.033Z,51.6
2017-11-25T02:17:51.353Z,51.4
2017-11-25T02:18:53.254Z,51.5
2017-11-25T02:19:54.594Z,51.4
2017-11-25T02:20:56.516Z,51.6
2017-11-25T02:21:58.408Z,51.2
2017-11-25T02:23:00.029Z,51.6
2017-11-25T02:24:01.940Z,51.4
2017-11-25T02:25:03.551Z,51.5
2017-11-25T02:26:05.157Z,51.5
2017-11-25T02:27:06.760Z,51.4
2017-11-25T02:28:08.652Z,51.2
2017-11-25T02:29:10.563Z,51.2
2017-11-25T02:30:12.173Z,51.4
2017-11-25T02:31:13.768Z,51.6
2017-11-25T02:32:14.819Z,51.4
2017-11-25T02:33:16.416Z,51.6
2017-11-25T02:34:18.311Z,51.4
2017-11-25T02:35:19.912Z,51.6
2017-11-25T02:36:21.228Z,51.3
2017-11-25T02:37:22.825Z,51.4
2017-11-25T02:38:24.443Z,51.2
2017-11-25T02:39:26.340Z,51.6
2017-11-25T02:40:27.959Z,51.5
2017-11-25T02:41:29.305Z,51.4
2017-11-25T02:42:30.623Z,51.5
2017-11-25T02:43:32.518Z,51.6
2017-11-25T02:44:33.860Z,51.2
2017-11-25T02:45:35.487Z,51.4
2017-11-25T02:46:37.391Z,51.5
2017-11-25T02:47:39.288Z,51.3
2017-11-25T02:48:41.188Z,51.4
2017-11-25T02:49:42.856Z,51.4
2017-11-25T02:50:44.454Z,51.3
2017-11-25T02:51:46.356Z,51.5
2017-11-25T02:52:47.967Z,51.6
2017-11-25T02:53:49.304Z,51.3
2017-11-25T02:54:50.923Z,51.6
2017-11-25T02:55:52.241Z,51.2
2017-11-25T02:56:53.838Z,51.3
2017-11-25T02:57:55.732Z,51.3
2017-11-25T02:58:57.629Z,51.2
2017-11-25T02:59:59.248Z,51.4
2017-11-25T03:01:00.867Z,51.3
2017-11-25T03:02:02.776Z,51.4
2017-11-25T03:03:04.098Z,51.4
2017-11-25T03:04:05.440Z,51.2
2017-11-25T03:05:06.760Z,51.4
2017-11-25T03:06:08.357Z,51.4
2017-11-25T03:07:10.254Z,51.4
2017-11-25T03:08:12.153Z,51.4
2017-11-25T03:09:14.047Z,51.4
2017-11-25T03:10:15.647Z,51.2
2017-11-25T03:11:17.248Z,51.3
2017-11-25T03:12:18.567Z,51.6
2017-11-25T03:13:19.910Z,51.7
2017-11-25T03:14:21.809Z,51.2
2017-11-25T03:15:23.704Z,51.6
2017-11-25T03:16:25.046Z,51.6
2017-11-25T03:17:26.669Z,51.2
2017-11-25T03:18:28.566Z,51.4
2017-11-25T03:19:30.462Z,51.3
2017-11-25T03:20:32.359Z,51.6
2017-11-25T03:21:33.976Z,51.2
2017-11-25T03:22:35.613Z,51.4
2017-11-25T03:23:37.231Z,51.2
2017-11-25T03:24:38.828Z,51.2
2017-11-25T03:25:40.724Z,51.7
2017-11-25T03:26:42.621Z,51.2
2017-11-25T03:27:44.546Z,51.2
2017-11-25T03:28:46.443Z,51.3
2017-11-25T03:29:47.763Z,51.6
2017-11-25T03:30:49.682Z,51.3
2017-11-25T03:31:51.296Z,51.3
2017-11-25T03:32:53.200Z,51.1
2017-11-25T03:33:55.095Z,51.2
2017-11-25T03:34:56.994Z,51.2
2017-11-25T03:35:58.338Z,51.2
2017-11-25T03:37:00.235Z,51.5
2017-11-25T03:38:01.854Z,51.2
2017-11-25T03:39:03.747Z,51.6
2017-11-25T03:40:05.641Z,51.2
2017-11-25T03:41:07.536Z,51.3
2017-11-25T03:42:09.431Z,51.2
2017-11-25T03:43:11.326Z,51.6
2017-11-25T03:44:12.951Z,51.3
2017-11-25T03:45:14.294Z,51.2
2017-11-25T03:46:15.890Z,51.2
2017-11-25T03:47:17.788Z,51.2
2017-11-25T03:48:19.409Z,51.2
2017-11-25T03:49:20.750Z,51.6
2017-11-25T03:50:22.122Z,51.2
2017-11-25T03:51:24.018Z,51.3
2017-11-25T03:52:25.912Z,51.3
2017-11-25T03:53:27.807Z,51.3
2017-11-25T03:54:29.711Z,51.3
2017-11-25T03:55:31.050Z,51.3
2017-11-25T03:56:32.646Z,51.2
2017-11-25T03:57:34.266Z,51.1
2017-11-25T03:58:35.609Z,51.3
2017-11-25T03:59:37.497Z,51.3
2017-11-25T04:00:38.841Z,51.3
2017-11-25T04:01:40.477Z,51.2
2017-11-25T04:02:42.077Z,51.2
2017-11-25T04:03:43.119Z,51.2
2017-11-25T04:04:45.017Z,51.2
2017-11-25T04:05:46.641Z,51.2
2017-11-25T04:06:48.258Z,51.3
2017-11-25T04:07:49.880Z,51.2
2017-11-25T04:08:50.646Z,51.3
2017-11-25T04:09:52.546Z,51.2
2017-11-25T04:10:54.445Z,51.3
2017-11-25T04:11:56.339Z,51.3
2017-11-25T04:12:58.238Z,51.6
2017-11-25T04:13:59.585Z,51.3
2017-11-25T04:15:01.539Z,51.3
2017-11-25T04:16:04.187Z,51.2
2017-11-25T04:17:05.543Z,51.3
2017-11-25T04:18:07.150Z,51.3
2017-11-25T04:19:08.472Z,51.3
2017-11-25T04:20:10.098Z,51.2
2017-11-25T04:21:11.988Z,51.6
2017-11-25T04:22:13.887Z,51.3
2017-11-25T04:23:15.778Z,51.3
2017-11-25T04:24:17.671Z,51.3
2017-11-25T04:25:19.270Z,51.3
2017-11-25T04:26:20.628Z,51.6
2017-11-25T04:27:22.283Z,51.3
2017-11-25T04:28:23.899Z,51.3
2017-11-25T04:29:25.786Z,51.3
2017-11-25T04:30:27.682Z,51.6
2017-11-25T04:31:29.579Z,51.2
2017-11-25T04:32:31.470Z,51.1
2017-11-25T04:33:33.368Z,51.3
2017-11-25T04:34:34.414Z,51.4
2017-11-25T04:35:35.767Z,51.3
2017-11-25T04:36:37.083Z,51.3
2017-11-25T04:37:38.981Z,51.2
2017-11-25T04:38:40.880Z,51.3
2017-11-25T04:39:42.221Z,51.5
2017-11-25T04:40:44.134Z,51.6
2017-11-25T04:41:45.752Z,51.4
2017-11-25T04:42:47.654Z,51.2
2017-11-25T04:43:49.589Z,51.6
2017-11-25T04:44:51.202Z,51.2
2017-11-25T04:45:52.825Z,51.2
2017-11-25T04:46:54.720Z,51.3
2017-11-25T04:47:56.350Z,51.2
2017-11-25T04:48:57.683Z,51.2
2017-11-25T04:49:59.301Z,51.2
2017-11-25T04:51:01.199Z,51.2
2017-11-25T04:52:03.091Z,51.3
2017-11-25T04:53:04.436Z,51.3
2017-11-25T04:54:06.341Z,51.3
2017-11-25T04:55:07.937Z,51.3
2017-11-25T04:56:09.277Z,51.2
2017-11-25T04:57:11.178Z,51.2
2017-11-25T04:58:13.077Z,51.1
2017-11-25T04:59:14.698Z,51.1
2017-11-25T05:00:16.328Z,51.2
2017-11-25T05:01:17.948Z,51.2
2017-11-25T05:02:19.845Z,51.2
2017-11-25T05:03:21.441Z,51.1
2017-11-25T05:04:23.337Z,51.2
2017-11-25T05:05:25.233Z,51.2
2017-11-25T05:06:27.134Z,51.3
2017-11-25T05:07:28.755Z,51.5
2017-11-25T05:08:30.374Z,51.2
2017-11-25T05:09:31.994Z,51.6
2017-11-25T05:10:33.649Z,51.5
2017-11-25T05:11:34.948Z,51.2
2017-11-25T05:12:36.849Z,51.6
2017-11-25T05:13:38.468Z,51.2
2017-11-25T05:14:40.363Z,51.2
2017-11-25T05:15:41.683Z,51.2
2017-11-25T05:16:42.728Z,51.6
2017-11-25T05:17:44.627Z,51.5
2017-11-25T05:18:45.948Z,51.3
2017-11-25T05:19:47.586Z,51.2
2017-11-25T05:20:48.908Z,51.1
2017-11-25T05:21:50.802Z,51.1
2017-11-25T05:22:52.704Z,51.6
2017-11-25T05:23:54.614Z,51.2
2017-11-25T05:24:55.957Z,51.2
2017-11-25T05:25:57.853Z,51.1
2017-11-25T05:26:59.193Z,51.2
2017-11-25T05:28:01.094Z,51.1
2017-11-25T05:29:02.709Z,51.1
2017-11-25T05:30:04.328Z,51.2
2017-11-25T05:31:05.951Z,51.2
2017-11-25T05:32:07.551Z,51.2
2017-11-25T05:33:09.449Z,51.5
2017-11-25T05:34:11.115Z,51.1
2017-11-25T05:35:12.459Z,51.2
2017-11-25T05:36:14.138Z,51.1
2017-11-25T05:37:15.179Z,51.2
2017-11-25T05:38:16.544Z,51.3
2017-11-25T05:39:18.456Z,51.4
2017-11-25T05:40:20.091Z,51.1
2017-11-25T05:41:21.709Z,51.5
2017-11-25T05:42:23.623Z,51.5
2017-11-25T05:43:25.234Z,51.3
2017-11-25T05:44:26.856Z,51.2
2017-11-25T05:45:28.172Z,51.4
2017-11-25T05:46:30.068Z,51.5
2017-11-25T05:47:31.710Z,51.2
2017-11-25T05:48:33.603Z,51.2
2017-11-25T05:49:35.509Z,51.5
2017-11-25T05:50:37.127Z,51.2
2017-11-25T05:51:38.450Z,51.2
2017-11-25T05:52:40.344Z,51.2
2017-11-25T05:53:42.240Z,51.2
2017-11-25T05:54:44.141Z,51.2
2017-11-25T05:55:46.037Z,51.2
2017-11-25T05:56:47.634Z,51.1
2017-11-25T05:57:48.957Z,51.2
2017-11-25T05:58:50.276Z,51.1
2017-11-25T05:59:52.215Z,51.1
2017-11-25T06:00:54.155Z,51.1
2017-11-25T06:01:55.798Z,51.2
2017-11-25T06:02:57.106Z,51.6
2017-11-25T06:03:58.443Z,51.2
2017-11-25T06:05:00.042Z,51.1
2017-11-25T06:06:01.940Z,51.2
2017-11-25T06:07:03.561Z,51.2
2017-11-25T06:08:05.463Z,51
2017-11-25T06:09:07.389Z,51.2
2017-11-25T06:10:09.284Z,51.2
2017-11-25T06:11:11.179Z,51.2
2017-11-25T06:12:12.525Z,51.6
2017-11-25T06:13:14.141Z,51.2
2017-11-25T06:14:16.036Z,51.2
2017-11-25T06:15:17.932Z,51.2
2017-11-25T06:16:19.826Z,51.1
2017-11-25T06:17:21.148Z,51.1
2017-11-25T06:18:22.765Z,51.3
2017-11-25T06:19:24.661Z,51.2
2017-11-25T06:20:26.554Z,51.2
2017-11-25T06:21:28.454Z,51.3
2017-11-25T06:22:30.073Z,51.2
2017-11-25T06:23:31.972Z,51.1
2017-11-25T06:24:33.592Z,51.2
2017-11-25T06:25:35.211Z,51.5
2017-11-25T06:26:36.528Z,51.2
2017-11-25T06:27:38.428Z,51.6
2017-11-25T06:28:40.044Z,51.2
2017-11-25T06:29:41.686Z,50.9
2017-11-25T06:30:43.027Z,51.6
2017-11-25T06:31:44.646Z,51.2
2017-11-25T06:32:46.545Z,51.2
2017-11-25T06:33:48.154Z,51.2
2017-11-25T06:34:49.473Z,51
2017-11-25T06:35:51.369Z,51.2
2017-11-25T06:36:52.987Z,51.3
2017-11-25T06:37:54.681Z,51.5
2017-11-25T06:38:56.000Z,51.2
2017-11-25T06:39:57.621Z,51.1
2017-11-25T06:40:59.522Z,51
2017-11-25T06:42:01.141Z,51.1
2017-11-25T06:43:02.761Z,51.6
2017-11-25T06:44:04.657Z,51.1
2017-11-25T06:45:06.553Z,51
2017-11-25T06:46:08.450Z,51.1
2017-11-25T06:47:10.347Z,51.6
2017-11-25T06:48:11.668Z,51
2017-11-25T06:49:13.285Z,50.9
2017-11-25T06:50:15.181Z,50.9
2017-11-25T06:51:17.078Z,50.9
2017-11-25T06:52:18.974Z,51.2
2017-11-25T06:53:20.868Z,51
2017-11-25T06:54:22.765Z,51.2
2017-11-25T06:55:24.662Z,50.9
2017-11-25T06:56:26.006Z,50.9
2017-11-25T06:57:27.349Z,50.8
2017-11-25T06:58:28.392Z,50.9
2017-11-25T06:59:30.013Z,50.9
2017-11-25T07:00:31.628Z,50.9
2017-11-25T07:01:33.248Z,51.2
2017-11-25T07:02:35.155Z,51
2017-11-25T07:03:36.485Z,50.9
2017-11-25T07:04:38.082Z,50.9
2017-11-25T07:05:39.701Z,51.3
2017-11-25T07:06:41.622Z,51
2017-11-25T07:07:43.521Z,51.2
2017-11-25T07:08:45.443Z,50.9
2017-11-25T07:09:47.345Z,51
2017-11-25T07:10:49.235Z,50.9
2017-11-25T07:11:51.138Z,51
2017-11-25T07:12:52.458Z,51
2017-11-25T07:13:54.077Z,51
2017-11-25T07:14:55.971Z,51.4
2017-11-25T07:15:57.582Z,51
2017-11-25T07:16:59.205Z,50.9
2017-11-25T07:18:00.834Z,51
2017-11-25T07:19:02.434Z,50.8
2017-11-25T07:20:03.774Z,51.1
2017-11-25T07:21:05.398Z,50.9
2017-11-25T07:22:07.019Z,51.1
2017-11-25T07:23:08.062Z,50.9
2017-11-25T07:24:09.958Z,51.1
2017-11-25T07:25:11.580Z,51.1
2017-11-25T07:26:13.206Z,51.1
2017-11-25T07:27:14.818Z,51.1
2017-11-25T07:28:16.438Z,50.9
2017-11-25T07:29:17.779Z,50.9
2017-11-25T07:30:19.403Z,50.9
2017-11-25T07:31:21.003Z,51.1
2017-11-25T07:32:22.897Z,51.4
2017-11-25T07:33:24.790Z,51
2017-11-25T07:34:26.117Z,51.1
2017-11-25T07:35:27.179Z,51.4
2017-11-25T07:36:28.815Z,50.9
2017-11-25T07:37:30.421Z,51.4
2017-11-25T07:38:32.140Z,51.4
2017-11-25T07:39:34.069Z,51.1
2017-11-25T07:40:35.661Z,50.8
2017-11-25T07:41:37.280Z,51
2017-11-25T07:42:39.177Z,50.9
2017-11-25T07:43:41.072Z,51.1
2017-11-25T07:44:42.973Z,50.9
2017-11-25T07:45:44.873Z,51.4
2017-11-25T07:46:46.787Z,51.1
2017-11-25T07:47:48.686Z,50.9
2017-11-25T07:48:50.631Z,51.1
2017-11-25T07:49:52.263Z,51.4
2017-11-25T07:50:53.880Z,51.3
2017-11-25T07:51:55.215Z,50.7
2017-11-25T07:52:57.121Z,51.1
2017-11-25T07:53:59.021Z,50.8
2017-11-25T07:55:00.639Z,51.1
2017-11-25T07:56:02.251Z,50.8
2017-11-25T07:57:03.869Z,50.8
2017-11-25T07:58:04.939Z,51
2017-11-25T07:59:06.563Z,50.9
2017-11-25T08:00:08.161Z,51
2017-11-25T08:01:09.779Z,50.9
2017-11-25T08:02:11.675Z,50.9
2017-11-25T08:03:12.996Z,51
2017-11-25T08:04:14.890Z,51
2017-11-25T08:05:16.509Z,51
2017-11-25T08:06:17.832Z,51.1
2017-11-25T08:07:19.454Z,50.8
2017-11-25T08:08:21.058Z,50.9
2017-11-25T08:09:22.954Z,51
2017-11-25T08:10:24.000Z,50.8
2017-11-25T08:11:25.922Z,50.7
2017-11-25T08:12:27.812Z,50.8
2017-11-25T08:13:28.855Z,51
2017-11-25T08:14:30.477Z,50.9
2017-11-25T08:15:32.101Z,51
2017-11-25T08:16:33.729Z,50.8
2017-11-25T08:17:35.338Z,50.6
2017-11-25T08:18:36.681Z,50.8
2017-11-25T08:19:38.062Z,50.9
2017-11-25T08:20:39.662Z,50.7
2017-11-25T08:21:41.266Z,50.6
2017-11-25T08:22:42.864Z,50.6
2017-11-25T08:23:44.208Z,50.7
2017-11-25T08:24:46.032Z,51.3
2017-11-25T08:25:47.653Z,51.3
2017-11-25T08:26:48.696Z,51.3
2017-11-25T08:27:50.597Z,50.6
2017-11-25T08:28:52.221Z,50.6
2017-11-25T08:29:53.292Z,51.2
2017-11-25T08:30:54.907Z,50.7
2017-11-25T08:31:56.538Z,50.6
2017-11-25T08:32:58.152Z,50.7
2017-11-25T08:33:59.495Z,50.6
2017-11-25T08:35:01.123Z,50.7
2017-11-25T08:36:03.012Z,50.7
2017-11-25T08:37:04.632Z,50.7
2017-11-25T08:38:06.235Z,50.5
2017-11-25T08:39:07.854Z,50.5
2017-11-25T08:40:09.755Z,50.7
2017-11-25T08:41:11.652Z,50.7
2017-11-25T08:42:12.997Z,50.5
2017-11-25T08:43:14.614Z,50.6
2017-11-25T08:44:16.236Z,50.9
2017-11-25T08:45:17.578Z,51.2
2017-11-25T08:46:19.475Z,51.1
2017-11-25T08:47:21.099Z,50.7
2017-11-25T08:48:22.416Z,50.8
2017-11-25T08:49:24.018Z,50.7
2017-11-25T08:50:25.641Z,50.7
2017-11-25T08:51:27.255Z,50.6
2017-11-25T08:52:28.850Z,50.7
2017-11-25T08:53:30.470Z,50.6
2017-11-25T08:54:32.091Z,51.1
2017-11-25T08:55:33.694Z,50.6
2017-11-25T08:56:35.588Z,50.6
2017-11-25T08:57:36.919Z,50.6
2017-11-25T08:58:38.535Z,50.6
2017-11-25T08:59:39.857Z,51.2
2017-11-25T09:00:41.751Z,50.7
2017-11-25T09:01:43.645Z,51.2
2017-11-25T09:02:45.544Z,50.8
2017-11-25T09:03:47.440Z,50.9
2017-11-25T09:04:48.789Z,50.6
2017-11-25T09:05:50.408Z,50.7
2017-11-25T09:06:52.029Z,51.3
2017-11-25T09:07:53.927Z,51.3
2017-11-25T09:08:54.993Z,50.7
2017-11-25T09:09:56.888Z,50.6
2017-11-25T09:10:58.513Z,50.7
2017-11-25T09:12:00.409Z,50.6
2017-11-25T09:13:02.312Z,50.7
2017-11-25T09:14:03.632Z,51.1
2017-11-25T09:15:05.527Z,51.1
2017-11-25T09:16:07.428Z,50.6
2017-11-25T09:17:09.318Z,50.6
2017-11-25T09:18:11.220Z,51.2
2017-11-25T09:19:12.840Z,50.6
2017-11-25T09:20:14.463Z,50.6
2017-11-25T09:21:16.093Z,51.2
2017-11-25T09:22:17.430Z,50.7
2017-11-25T09:23:19.049Z,50.7
2017-11-25T09:24:20.671Z,50.8
2017-11-25T09:25:22.566Z,50.8
2017-11-25T09:26:24.187Z,51.1
2017-11-25T09:27:26.088Z,50.8
2017-11-25T09:28:27.988Z,50.7
2017-11-25T09:29:29.896Z,50.7
2017-11-25T09:30:31.222Z,50.7
2017-11-25T09:31:32.560Z,50.9
2017-11-25T09:32:34.177Z,50.6
2017-11-25T09:33:35.797Z,50.8
2017-11-25T09:34:37.119Z,50.9
2017-11-25T09:35:38.494Z,50.6
2017-11-25T09:36:40.108Z,50.8
2017-11-25T09:37:42.011Z,50.5
2017-11-25T09:38:43.614Z,50.6
2017-11-25T09:39:45.239Z,50.6
2017-11-25T09:40:46.859Z,50.5
2017-11-25T09:41:48.751Z,50.7
2017-11-25T09:42:50.648Z,50.7
2017-11-25T09:43:52.249Z,50.7
2017-11-25T09:44:54.148Z,50.5
2017-11-25T09:45:55.771Z,50.5
2017-11-25T09:46:57.395Z,50.6
2017-11-25T09:47:59.017Z,50.9
2017-11-25T09:49:00.642Z,50.6
2017-11-25T09:50:02.260Z,50.5
2017-11-25T09:51:03.985Z,50.5
2017-11-25T09:52:05.333Z,50.5
2017-11-25T09:53:06.659Z,50.6
2017-11-25T09:54:08.272Z,50.8
2017-11-25T09:55:09.596Z,50.4
2017-11-25T09:56:11.322Z,50.5
2017-11-25T09:57:12.950Z,50.5
2017-11-25T09:58:14.270Z,50.4
2017-11-25T09:59:15.622Z,50.5
2017-11-25T10:00:17.223Z,50.4
2017-11-25T10:01:19.214Z,50.4
2017-11-25T10:02:20.838Z,50.3
2017-11-25T10:03:22.154Z,51
2017-11-25T10:04:23.494Z,50.7
2017-11-25T10:05:24.835Z,50.6
2017-11-25T10:06:26.458Z,50.5
2017-11-25T10:07:28.081Z,50.6
2017-11-25T10:08:29.127Z,50.7
2017-11-25T10:09:30.750Z,50.6
2017-11-25T10:10:32.067Z,50.6
2017-11-25T10:11:33.688Z,50.5
2017-11-25T10:12:35.319Z,50.5
2017-11-25T10:13:36.635Z,50.6
2017-11-25T10:14:37.976Z,50.8
2017-11-25T10:15:39.597Z,50.5
2017-11-25T10:16:41.492Z,50.6
2017-11-25T10:17:42.819Z,50.9
2017-11-25T10:18:44.721Z,50.5
2017-11-25T10:19:46.615Z,50.4
2017-11-25T10:20:48.511Z,50.2
2017-11-25T10:21:50.130Z,50.4
2017-11-25T10:22:51.728Z,50.5
2017-11-25T10:23:53.347Z,50.9
2017-11-25T10:24:54.691Z,50.4
2017-11-25T10:25:56.583Z,50.9
2017-11-25T10:26:58.480Z,50.4
2017-11-25T10:28:00.104Z,50.9
2017-11-25T10:29:01.421Z,50.4
2017-11-25T10:30:03.038Z,50.4
2017-11-25T10:31:04.667Z,50.3
2017-11-25T10:32:05.985Z,50.5
2017-11-25T10:33:07.585Z,50.8
2017-11-25T10:34:09.184Z,50.4
2017-11-25T10:35:10.806Z,50.3
2017-11-25T10:36:12.448Z,50.8
2017-11-25T10:37:14.058Z,50.3
2017-11-25T10:38:15.955Z,50.5
2017-11-25T10:39:17.299Z,50.5
2017-11-25T10:40:18.343Z,50.6
2017-11-25T10:41:19.960Z,50.6
2017-11-25T10:42:21.559Z,50.5
2017-11-25T10:43:23.184Z,50.3
2017-11-25T10:44:25.080Z,50.4
2017-11-25T10:45:26.402Z,50.4
2017-11-25T10:46:27.744Z,50.5
2017-11-25T10:47:29.642Z,50.4
2017-11-25T10:48:31.247Z,50.4
2017-11-25T10:49:32.867Z,50.4
2017-11-25T10:50:34.485Z,50.3
2017-11-25T10:51:36.107Z,50.7
2017-11-25T10:52:37.726Z,50.4
2017-11-25T10:53:39.627Z,50.3
2017-11-25T10:54:41.521Z,50.4
2017-11-25T10:55:42.909Z,50.3
2017-11-25T10:56:44.808Z,50.3
2017-11-25T10:57:46.703Z,50.2
2017-11-25T10:58:48.606Z,50.3
2017-11-25T10:59:50.224Z,50.3
2017-11-25T11:00:51.841Z,50.3
2017-11-25T11:01:53.741Z,50.3
2017-11-25T11:02:55.061Z,50.2
2017-11-25T11:03:56.961Z,50.2
2017-11-25T11:04:58.305Z,50.2
2017-11-25T11:06:00.206Z,50.1
2017-11-25T11:07:02.101Z,50.2
2017-11-25T11:08:03.737Z,50.2
2017-11-25T11:09:05.631Z,50.2
2017-11-25T11:10:07.227Z,50.8
2017-11-25T11:11:08.847Z,50.2
2017-11-25T11:12:10.746Z,50.6
2017-11-25T11:13:12.642Z,50.2
2017-11-25T11:14:14.539Z,50
2017-11-25T11:15:16.450Z,50.1
2017-11-25T11:16:18.076Z,50.2
2017-11-25T11:17:19.694Z,50.2
2017-11-25T11:18:21.599Z,50.2
2017-11-25T11:19:23.497Z,50.2
2017-11-25T11:20:25.397Z,50.5
2017-11-25T11:21:27.014Z,50.3
2017-11-25T11:22:28.613Z,50.2
2017-11-25T11:23:30.233Z,50.5
2017-11-25T11:24:32.127Z,50.4
2017-11-25T11:25:34.024Z,50.4
2017-11-25T11:26:35.922Z,50.5
2017-11-25T11:27:37.544Z,50.3
2017-11-25T11:28:39.442Z,50.4
2017-11-25T11:29:40.759Z,50.7
2017-11-25T11:30:42.662Z,50.2
2017-11-25T11:31:44.287Z,50.4
2017-11-25T11:32:46.186Z,50.1
2017-11-25T11:33:47.528Z,50.2
2017-11-25T11:34:48.870Z,50.1
2017-11-25T11:35:50.467Z,50.1
2017-11-25T11:36:52.384Z,50.6
2017-11-25T11:37:54.280Z,50.4
2017-11-25T11:38:55.896Z,50.4
2017-11-25T11:39:57.516Z,50.4
2017-11-25T11:40:59.139Z,50.3
2017-11-25T11:42:01.041Z,50.2
2017-11-25T11:43:02.933Z,50.4
2017-11-25T11:44:04.548Z,50
2017-11-25T11:45:06.171Z,50.2
2017-11-25T11:46:08.068Z,50
2017-11-25T11:47:09.970Z,50.3
2017-11-25T11:48:11.584Z,50.3
2017-11-25T11:49:13.487Z,49.9
2017-11-25T11:50:15.113Z,50.4
2017-11-25T11:51:16.728Z,50.3
2017-11-25T11:52:18.046Z,50.3
2017-11-25T11:53:19.394Z,50.1
2017-11-25T11:54:21.013Z,50.2
2017-11-25T11:55:22.631Z,50.1
2017-11-25T11:56:24.248Z,50.1
2017-11-25T11:57:25.870Z,50.1
2017-11-25T11:58:27.769Z,50
2017-11-25T11:59:29.396Z,50.1
2017-11-25T12:00:31.296Z,50
2017-11-25T12:01:32.641Z,50
2017-11-25T12:02:34.245Z,50.1
2017-11-25T12:03:36.135Z,50
2017-11-25T12:04:37.761Z,50
2017-11-25T12:05:39.666Z,50.2
2017-11-25T12:06:41.285Z,50.1
2017-11-25T12:07:42.637Z,50.3
2017-11-25T12:08:44.530Z,50
2017-11-25T12:09:46.429Z,50
2017-11-25T12:10:48.052Z,50.3
2017-11-25T12:11:49.947Z,50.2
2017-11-25T12:12:51.571Z,50.1
2017-11-25T12:13:53.196Z,50.2
2017-11-25T12:14:54.517Z,50.3
2017-11-25T12:15:56.412Z,50.1
2017-11-25T12:16:58.029Z,50.1
2017-11-25T12:17:59.653Z,50
2017-11-25T12:19:01.272Z,50.4
2017-11-25T12:20:02.896Z,50.3
2017-11-25T12:21:04.526Z,50.2
2017-11-25T12:22:05.853Z,50
2017-11-25T12:23:07.757Z,50.1
2017-11-25T12:24:09.376Z,50.2
2017-11-25T12:25:11.282Z,50.2
2017-11-25T12:26:12.327Z,50.2
2017-11-25T12:27:13.942Z,50
2017-11-25T12:28:14.993Z,50.3
2017-11-25T12:29:16.899Z,50.2
2017-11-25T12:30:18.799Z,50.2
2017-11-25T12:31:20.427Z,50.4
2017-11-25T12:32:22.325Z,50.3
2017-11-25T12:33:23.655Z,50.3
2017-11-25T12:34:25.271Z,50
2017-11-25T12:35:27.204Z,50.3
2017-11-25T12:36:28.822Z,50.4
2017-11-25T12:37:30.446Z,50.3
2017-11-25T12:38:32.064Z,50.3
2017-11-25T12:39:33.410Z,50
2017-11-25T12:40:34.729Z,50
2017-11-25T12:41:36.347Z,50.1
2017-11-25T12:42:38.241Z,50
2017-11-25T12:43:39.593Z,50.1
2017-11-25T12:44:41.212Z,50.1
2017-11-25T12:45:42.834Z,50
2017-11-25T12:46:44.729Z,50
2017-11-25T12:47:46.624Z,50.1
2017-11-25T12:48:48.242Z,50.1
2017-11-25T12:49:50.141Z,50.1
2017-11-25T12:50:51.757Z,50
2017-11-25T12:51:52.803Z,49.9
2017-11-25T12:52:54.398Z,50.2
2017-11-25T12:53:55.721Z,50.1
2017-11-25T12:54:57.063Z,50.1
2017-11-25T12:55:58.408Z,50.2
2017-11-25T12:57:00.305Z,50.1
2017-11-25T12:58:02.202Z,50.1
2017-11-25T12:59:03.824Z,50.2
2017-11-25T13:00:05.420Z,50.1
2017-11-25T13:01:07.326Z,50.2
2017-11-25T13:02:08.951Z,50.2
2017-11-25T13:03:10.549Z,50
2017-11-25T13:04:12.446Z,50.1
2017-11-25T13:05:14.340Z,50
2017-11-25T13:06:16.238Z,50
2017-11-25T13:07:18.137Z,50
2017-11-25T13:08:19.757Z,50
2017-11-25T13:09:21.651Z,50.1
2017-11-25T13:10:23.548Z,50
2017-11-25T13:11:25.444Z,50.2
2017-11-25T13:12:27.343Z,50
2017-11-25T13:13:28.689Z,49.9
2017-11-25T13:14:30.305Z,49.8
2017-11-25T13:15:31.905Z,49.9
2017-11-25T13:16:33.802Z,50
2017-11-25T13:17:35.400Z,50
2017-11-25T13:18:37.297Z,50.1
2017-11-25T13:19:38.907Z,50.1
2017-11-25T13:20:40.810Z,49.7
2017-11-25T13:21:42.709Z,49.7
2017-11-25T13:22:44.331Z,49.9
2017-11-25T13:23:45.669Z,49.7
2017-11-25T13:24:47.290Z,49.7
2017-11-25T13:25:48.906Z,49.7
2017-11-25T13:26:50.510Z,50.2
2017-11-25T13:27:52.127Z,49.7
2017-11-25T13:28:54.024Z,49.8
2017-11-25T13:29:55.923Z,49.7
2017-11-25T13:30:57.540Z,49.9
2017-11-25T13:31:59.442Z,50
2017-11-25T13:33:01.337Z,50
2017-11-25T13:34:02.404Z,50
2017-11-25T13:35:03.747Z,49.9
2017-11-25T13:36:05.642Z,50.1
2017-11-25T13:37:07.539Z,50
2017-11-25T13:38:08.872Z,50
2017-11-25T13:39:10.494Z,49.8
2017-11-25T13:40:12.089Z,49.8
2017-11-25T13:41:13.730Z,49.9
2017-11-25T13:42:15.351Z,49.8
2017-11-25T13:43:17.248Z,50
2017-11-25T13:44:18.878Z,49.8